Time;durP1;ratioP1;P1;durP2;ratioP2;P2;SDS_P1;SDS_P2;PMS_P1;PMS_P2;Temp;Humidity;BMP_temperature;BMP_pressure;BME280_temperature;BME280_humidity;BME280_pressure;Samples;Min_cycle;Max_cycle;Signal;HPM_P1;HPM_P2
2021/01/04 00:00:52;;;;;;;8.50;5.53;;;1.60;99.90;;;;;;4991914;28;20030;-60
2021/01/04 00:03:36;;;;;;;7.57;4.90;;;1.60;99.90;;;;;;4987422;28;20084;-60
2021/01/04 00:06:46;;;;;;;7.10;5.13;;;1.70;99.90;;;;;;4992086;28;20018;-59
2021/01/04 00:09:11;;;;;;;7.40;5.07;;;1.60;99.90;;;;;;4988668;28;20108;-57
2021/01/04 00:11:57;;;;;;;7.90;5.35;;;1.60;99.90;;;;;;4992552;28;20508;-60
2021/01/04 00:14:35;;;;;;;7.70;5.40;;;1.60;99.90;;;;;;4986304;28;20034;-61
2021/01/04 00:17:21;;;;;;;10.23;5.47;;;1.60;99.90;;;;;;4990596;28;20758;-58
2021/01/04 00:20:29;;;;;;;6.97;5.32;;;1.60;99.90;;;;;;4988233;28;20388;-58
2021/01/04 00:23:16;;;;;;;7.22;4.93;;;1.50;99.90;;;;;;4987187;28;20034;-56
2021/01/04 00:25:51;;;;;;;9.02;5.60;;;1.60;99.90;;;;;;4992018;28;20026;-60
2021/01/04 00:28:19;;;;;;;;;;;1.50;99.90;;;;;;4991822;28;20113;-58
2021/01/04 00:31:02;;;;;;;9.25;5.25;;;1.50;99.90;;;;;;4990933;28;19921;-61
2021/01/04 00:33:30;;;;;;;6.63;4.40;;;1.50;99.90;;;;;;4990509;28;20052;-60
2021/01/04 00:36:03;;;;;;;13.10;5.43;;;1.50;99.90;;;;;;4986968;28;20554;-58
2021/01/04 00:38:53;;;;;;;7.75;4.45;;;1.50;99.90;;;;;;4990303;28;20395;-57
2021/01/04 00:41:43;;;;;;;7.72;5.10;;;1.60;99.90;;;;;;4988306;28;20050;-62
2021/01/04 00:44:16;;;;;;;7.00;5.10;;;1.50;99.90;;;;;;4987953;28;20022;-60
2021/01/04 00:46:47;;;;;;;6.72;4.82;;;1.60;99.90;;;;;;4986895;28;20035;-62
2021/01/04 00:49:18;;;;;;;7.15;4.75;;;1.60;99.90;;;;;;4989585;28;20584;-60
2021/01/04 00:52:21;;;;;;;9.18;4.97;;;1.60;99.90;;;;;;4990259;28;20073;-59
2021/01/04 00:54:50;;;;;;;6.22;4.40;;;1.60;99.90;;;;;;4987755;28;20113;-59
2021/01/04 00:57:18;;;;;;;7.53;5.05;;;1.60;99.90;;;;;;4991749;28;20396;-62
2021/01/04 01:00:07;;;;;;;6.05;4.05;;;1.60;99.90;;;;;;4985032;28;20700;-60
2021/01/04 01:02:32;;;;;;;7.25;5.22;;;1.60;99.90;;;;;;4987397;28;20483;-57
2021/01/04 01:05:06;;;;;;;6.63;5.22;;;1.60;99.90;;;;;;4986338;28;20026;-57
2021/01/04 01:08:03;;;;;;;7.60;4.60;;;1.60;99.90;;;;;;4990880;28;20076;-61
2021/01/04 01:10:31;;;;;;;6.40;4.55;;;1.60;99.90;;;;;;4986037;28;20030;-60
2021/01/04 01:13:15;;;;;;;7.88;4.82;;;1.60;99.90;;;;;;4990409;28;20031;-59
2021/01/04 01:16:01;;;;;;;6.97;4.73;;;1.60;99.90;;;;;;4990615;28;20030;-61
2021/01/04 01:18:48;;;;;;;6.55;4.70;;;1.60;99.90;;;;;;4991300;28;20298;-62
2021/01/04 01:21:14;;;;;;;8.40;4.30;;;1.60;99.90;;;;;;4995574;28;20029;-61
2021/01/04 01:23:40;;;;;;;7.75;5.05;;;1.60;99.90;;;;;;4993067;28;20026;-61
2021/01/04 01:26:37;;;;;;;6.32;4.50;;;1.60;99.90;;;;;;4991974;28;20027;-61
2021/01/04 01:29:13;;;;;;;6.15;4.45;;;1.60;99.90;;;;;;4995467;28;20034;-61
2021/01/04 01:31:50;;;;;;;9.35;5.60;;;1.60;99.90;;;;;;4993974;28;20030;-60
2021/01/04 01:34:53;;;;;;;7.18;4.60;;;1.60;99.90;;;;;;4989485;28;20022;-59
2021/01/04 01:38:01;;;;;;;5.88;4.20;;;1.60;99.90;;;;;;4989268;28;20084;-61
2021/01/04 01:40:48;;;;;;;7.70;5.10;;;1.60;99.90;;;;;;4991310;28;20412;-60
2021/01/04 01:43:22;;;;;;;6.03;4.30;;;1.60;99.90;;;;;;4993376;28;20045;-63
2021/01/04 01:45:51;;;;;;;6.63;4.43;;;1.60;99.90;;;;;;4993337;28;20010;-59
2021/01/04 01:48:43;;;;;;;7.32;5.13;;;1.60;99.90;;;;;;4996579;28;20034;-58
2021/01/04 01:51:42;;;;;;;7.05;4.90;;;1.60;99.90;;;;;;4988272;28;20018;-59
2021/01/04 01:54:17;;;;;;;7.22;4.63;;;1.60;99.90;;;;;;4989550;28;20065;-59
2021/01/04 01:57:20;;;;;;;7.03;4.75;;;1.60;99.90;;;;;;4991394;28;20110;-67
2021/01/04 01:59:55;;;;;;;5.82;3.90;;;1.60;99.90;;;;;;4995502;28;20031;-62
2021/01/04 02:02:31;;;;;;;6.97;5.13;;;1.60;99.90;;;;;;4997295;28;20062;-61
2021/01/04 02:05:10;;;;;;;6.97;5.15;;;1.60;99.90;;;;;;4997357;28;20018;-62
2021/01/04 02:07:55;;;;;;;6.32;4.22;;;1.60;99.90;;;;;;4997526;28;20542;-61
2021/01/04 02:10:25;;;;;;;6.40;4.75;;;1.60;99.90;;;;;;4992181;28;20033;-63
2021/01/04 02:12:51;;;;;;;7.22;4.65;;;1.60;99.90;;;;;;4994998;28;20034;-61
2021/01/04 02:15:37;;;;;;;8.38;5.30;;;1.60;99.90;;;;;;4996907;28;20109;-61
2021/01/04 02:18:11;;;;;;;8.98;5.18;;;1.60;99.90;;;;;;5001817;28;20544;-61
2021/01/04 02:20:43;;;;;;;7.68;5.28;;;1.60;99.90;;;;;;4993173;28;20030;-63
2021/01/04 02:23:34;;;;;;;7.45;4.75;;;1.60;99.90;;;;;;4992187;28;20026;-63
2021/01/04 02:26:07;;;;;;;8.63;4.45;;;1.60;99.90;;;;;;4995156;28;20034;-61
2021/01/04 02:28:38;;;;;;;7.07;4.72;;;1.60;99.90;;;;;;4993179;28;20391;-63
2021/01/04 02:31:03;;;;;;;8.93;4.57;;;1.60;99.90;;;;;;4991925;28;20103;-64
2021/01/04 02:33:30;;;;;;;9.45;4.80;;;1.60;99.90;;;;;;4993739;28;20144;-62
2021/01/04 02:35:55;;;;;;;6.30;5.00;;;1.60;99.90;;;;;;4990402;28;20117;-61
2021/01/04 02:38:32;;;;;;;8.32;5.35;;;1.60;99.90;;;;;;4993815;28;20505;-60
2021/01/04 02:40:58;;;;;;;6.35;4.63;;;1.60;99.90;;;;;;4992936;28;20081;-62
2021/01/04 02:43:23;;;;;;;8.02;5.22;;;1.60;99.90;;;;;;4988237;28;20034;-63
2021/01/04 02:45:49;;;;;;;8.23;5.65;;;1.60;99.90;;;;;;4990199;28;20035;-60
2021/01/04 02:48:44;;;;;;;9.23;5.32;;;1.60;99.90;;;;;;4986416;28;20365;-63
2021/01/04 02:51:22;;;;;;;9.32;6.05;;;1.60;99.90;;;;;;4993837;28;20593;-61
2021/01/04 02:54:02;;;;;;;7.22;4.88;;;1.60;99.90;;;;;;4991725;28;20036;-62
2021/01/04 02:56:54;;;;;;;7.88;5.75;;;1.60;99.90;;;;;;4990784;28;20034;-60
2021/01/04 02:59:40;;;;;;;6.60;4.72;;;1.50;99.90;;;;;;4986835;28;20084;-60
2021/01/04 03:02:19;;;;;;;7.13;5.05;;;1.50;99.90;;;;;;4991484;28;20384;-60
2021/01/04 03:04:47;;;;;;;7.43;5.47;;;1.50;99.90;;;;;;4991456;28;20142;-59
2021/01/04 03:07:20;;;;;;;10.13;6.05;;;1.50;99.90;;;;;;4991017;28;20037;-61
2021/01/04 03:09:52;;;;;;;7.32;5.50;;;1.50;99.90;;;;;;4990476;28;20527;-58
2021/01/04 03:12:21;;;;;;;8.25;6.00;;;1.50;99.90;;;;;;4993402;28;20137;-60
2021/01/04 03:14:50;;;;;;;9.35;5.93;;;1.50;99.90;;;;;;4991851;28;20081;-62
2021/01/04 03:17:33;;;;;;;9.93;5.65;;;1.50;99.90;;;;;;4991405;28;20050;-62
2021/01/04 03:20:02;;;;;;;9.53;5.17;;;1.50;99.90;;;;;;4990657;28;20029;-60
2021/01/04 03:22:28;;;;;;;8.35;5.97;;;1.50;99.90;;;;;;4990151;28;20022;-64
2021/01/04 03:24:53;;;;;;;8.50;6.03;;;1.50;99.90;;;;;;4991883;28;20034;-58
2021/01/04 03:27:24;;;;;;;8.00;5.15;;;1.50;99.90;;;;;;4991445;28;20026;-59
2021/01/04 03:29:50;;;;;;;8.20;5.70;;;1.50;99.90;;;;;;4991330;28;20066;-57
2021/01/04 03:32:15;;;;;;;8.48;6.20;;;1.50;99.90;;;;;;4992581;28;20068;-62
2021/01/04 03:34:41;;;;;;;8.20;5.57;;;1.50;99.90;;;;;;4989841;28;20064;-63
2021/01/04 03:37:06;;;;;;;11.88;6.45;;;1.50;99.90;;;;;;4988870;28;20066;-60
2021/01/04 03:39:32;;;;;;;8.25;6.13;;;1.50;99.90;;;;;;4988386;28;20026;-59
2021/01/04 03:41:59;;;;;;;9.32;6.18;;;1.50;99.90;;;;;;5002353;28;20022;-62
2021/01/04 03:44:27;;;;;;;10.00;6.07;;;1.50;99.90;;;;;;4987014;28;20018;-59
2021/01/04 03:46:53;;;;;;;9.27;6.53;;;1.50;99.90;;;;;;4987675;28;20081;-61
2021/01/04 03:49:19;;;;;;;7.40;5.70;;;1.50;99.90;;;;;;4988172;28;20023;-59
2021/01/04 03:51:50;;;;;;;7.57;5.50;;;1.60;99.90;;;;;;4987562;28;20025;-61
2021/01/04 03:54:16;;;;;;;8.40;5.95;;;1.60;99.90;;;;;;4986412;28;20062;-63
2021/01/04 03:56:42;;;;;;;11.00;6.20;;;1.60;99.90;;;;;;4985644;28;20057;-62
2021/01/04 03:59:08;;;;;;;8.32;6.10;;;1.50;99.90;;;;;;4983616;28;20027;-62
2021/01/04 04:01:33;;;;;;;9.68;6.03;;;1.60;99.90;;;;;;4984893;28;20046;-59
2021/01/04 04:03:59;;;;;;;9.48;6.55;;;1.60;99.90;;;;;;4987588;28;20080;-62
2021/01/04 04:06:26;;;;;;;9.90;6.82;;;1.50;99.90;;;;;;4988296;28;20037;-62
2021/01/04 04:08:51;;;;;;;9.93;7.50;;;1.50;99.90;;;;;;5003608;28;20030;-60
2021/01/04 04:11:17;;;;;;;8.73;6.10;;;1.50;99.90;;;;;;4987538;28;20555;-63
2021/01/04 04:13:42;;;;;;;10.30;7.07;;;1.50;99.90;;;;;;4986857;28;20039;-60
2021/01/04 04:16:08;;;;;;;8.52;6.15;;;1.50;99.90;;;;;;4987063;28;20495;-62
2021/01/04 04:18:33;;;;;;;9.93;6.65;;;1.50;99.90;;;;;;4988011;28;20026;-63
2021/01/04 04:20:59;;;;;;;7.70;5.63;;;1.60;99.90;;;;;;4986879;28;20142;-61
2021/01/04 04:23:24;;;;;;;9.15;6.82;;;1.60;99.90;;;;;;4987712;28;20395;-63
2021/01/04 04:25:50;;;;;;;8.65;6.13;;;1.60;99.90;;;;;;4988431;28;20500;-62
2021/01/04 04:28:15;;;;;;;9.13;6.53;;;1.60;99.90;;;;;;4987868;28;20508;-60
2021/01/04 04:30:41;;;;;;;9.93;7.07;;;1.60;99.90;;;;;;4987092;28;20106;-60
2021/01/04 04:33:06;;;;;;;13.75;6.68;;;1.60;99.90;;;;;;4987532;28;20484;-61
2021/01/04 04:35:32;;;;;;;7.82;6.28;;;1.60;99.90;;;;;;4987339;28;20436;-62
2021/01/04 04:37:59;;;;;;;10.25;6.82;;;1.60;99.90;;;;;;4986216;28;20030;-60
2021/01/04 04:40:30;;;;;;;9.25;7.00;;;1.50;99.90;;;;;;4986827;28;20057;-63
2021/01/04 04:43:01;;;;;;;9.73;6.78;;;1.50;99.90;;;;;;4984023;28;20027;-59
2021/01/04 04:45:27;;;;;;;10.40;6.97;;;1.60;99.90;;;;;;4986690;28;20504;-61
2021/01/04 04:48:28;;;;;;;9.32;6.25;;;1.50;99.90;;;;;;4987016;28;20081;-62
2021/01/04 04:51:08;;;;;;;9.60;6.70;;;1.60;99.90;;;;;;4985661;28;20038;-59
2021/01/04 04:53:40;;;;;;;9.52;6.43;;;1.50;99.90;;;;;;4986198;28;21320;-61
2021/01/04 04:56:44;;;;;;;10.40;7.25;;;1.50;99.90;;;;;;4981574;28;20117;-62
2021/01/04 04:59:54;;;;;;;9.48;6.68;;;1.50;99.90;;;;;;4985030;28;20072;-61
2021/01/04 05:02:30;;;;;;;8.10;6.05;;;1.60;99.90;;;;;;4986318;28;20121;-61
2021/01/04 05:05:06;;;;;;;7.82;6.18;;;1.60;99.90;;;;;;4988024;28;20041;-60
2021/01/04 05:08:00;;;;;;;9.20;7.00;;;1.60;99.90;;;;;;4986480;28;20027;-62
2021/01/04 05:10:30;;;;;;;10.27;6.97;;;1.50;99.90;;;;;;4985530;28;20122;-59
2021/01/04 05:13:10;;;;;;;10.80;7.38;;;1.50;99.90;;;;;;4985765;28;20042;-62
2021/01/04 05:15:48;;;;;;;10.65;7.47;;;1.50;99.90;;;;;;4985805;28;20061;-61
2021/01/04 05:18:40;;;;;;;14.32;7.85;;;1.50;99.90;;;;;;4987056;28;20034;-59
2021/01/04 05:21:31;;;;;;;11.50;7.65;;;1.50;99.90;;;;;;4986572;28;20045;-63
2021/01/04 05:24:23;;;;;;;11.13;7.15;;;1.50;99.90;;;;;;4986758;28;20046;-60
2021/01/04 05:27:16;;;;;;;9.80;7.18;;;1.50;99.90;;;;;;5002618;28;20129;-58
2021/01/04 05:30:00;;;;;;;10.00;7.05;;;1.50;99.90;;;;;;4985855;28;20022;-62
2021/01/04 05:32:55;;;;;;;10.27;6.90;;;1.50;99.90;;;;;;4984257;28;20037;-62
2021/01/04 05:35:21;;;;;;;;;;;1.50;99.90;;;;;;4988410;28;20069;-61
2021/01/04 05:38:17;;;;;;;10.30;6.50;;;1.50;99.90;;;;;;4985649;28;19956;-59
2021/01/04 05:41:07;;;;;;;9.65;6.70;;;1.50;99.90;;;;;;4985850;28;20081;-63
2021/01/04 05:43:57;;;;;;;8.27;6.22;;;1.50;99.90;;;;;;4985945;28;20106;-61
2021/01/04 05:46:44;;;;;;;8.88;6.20;;;1.60;99.90;;;;;;4986393;28;20081;-64
2021/01/04 05:49:31;;;;;;;9.43;6.55;;;1.50;99.90;;;;;;4987048;28;20022;-61
2021/01/04 05:51:56;;;;;;;10.43;6.75;;;1.60;99.90;;;;;;4986460;28;20045;-61
2021/01/04 05:54:33;;;;;;;8.07;6.25;;;1.50;99.90;;;;;;4988767;28;20508;-60
2021/01/04 05:57:11;;;;;;;10.40;6.82;;;1.60;99.90;;;;;;4986033;28;20042;-63
2021/01/04 05:59:51;;;;;;;9.60;6.43;;;1.50;99.90;;;;;;4988319;28;20018;-62
2021/01/04 06:02:35;;;;;;;9.88;5.82;;;1.60;99.90;;;;;;4985470;28;20026;-63
2021/01/04 06:05:16;;;;;;;9.50;5.78;;;1.60;99.90;;;;;;4987809;28;20031;-61
2021/01/04 06:07:44;;;;;;;9.02;6.03;;;1.70;99.90;;;;;;4989342;28;20050;-63
2021/01/04 06:10:20;;;;;;;9.07;6.55;;;1.60;99.90;;;;;;4989425;28;20072;-61
2021/01/04 06:12:48;;;;;;;6.78;5.55;;;1.60;99.90;;;;;;5005694;28;20504;-62
2021/01/04 06:15:24;;;;;;;9.23;6.32;;;1.60;99.90;;;;;;4989867;28;20662;-61
2021/01/04 06:17:50;;;;;;;7.82;5.22;;;1.60;99.90;;;;;;4988810;28;20049;-61
2021/01/04 06:20:54;;;;;;;10.50;5.75;;;1.60;99.90;;;;;;4989839;28;20031;-57
2021/01/04 06:23:31;;;;;;;7.97;5.57;;;1.60;99.90;;;;;;4989355;28;20034;-61
2021/01/04 06:26:26;;;;;;;10.48;5.25;;;1.60;99.90;;;;;;4989545;28;20030;-64
2021/01/04 06:28:54;;;;;;;7.57;5.38;;;1.60;99.90;;;;;;4986594;28;20038;-60
2021/01/04 06:31:44;;;;;;;8.77;5.18;;;1.60;99.90;;;;;;4986868;28;20021;-62
2021/01/04 06:34:30;;;;;;;8.30;5.00;;;1.60;99.90;;;;;;4989456;28;20125;-61
2021/01/04 06:37:00;;;;;;;8.15;5.57;;;1.60;99.90;;;;;;4989483;28;20018;-62
2021/01/04 06:39:30;;;;;;;9.98;5.07;;;1.60;99.90;;;;;;4988693;28;20022;-60
2021/01/04 06:42:08;;;;;;;8.93;5.35;;;1.60;99.90;;;;;;4989507;28;20081;-61
2021/01/04 06:44:34;;;;;;;6.97;4.88;;;1.60;99.90;;;;;;4988948;28;20109;-63
2021/01/04 06:47:20;;;;;;;8.95;6.07;;;1.60;99.90;;;;;;4987856;28;21914;-60
2021/01/04 06:50:02;;;;;;;7.47;5.10;;;1.60;99.90;;;;;;4987789;28;20038;-61
2021/01/04 06:53:11;;;;;;;11.57;4.35;;;1.60;99.90;;;;;;4987633;28;20034;-59
2021/01/04 06:56:24;;;;;;;6.68;4.35;;;1.60;99.90;;;;;;4990200;28;20371;-62
2021/01/04 06:59:13;;;;;;;6.30;4.78;;;1.70;99.90;;;;;;4988618;28;20046;-60
2021/01/04 07:02:11;;;;;;;7.00;4.88;;;1.60;99.90;;;;;;4987779;28;20103;-63
2021/01/04 07:05:27;;;;;;;6.22;4.80;;;1.60;99.90;;;;;;4989149;28;20034;-57
2021/01/04 07:08:30;;;;;;;7.30;4.40;;;1.70;99.90;;;;;;4987489;28;20026;-61
2021/01/04 07:11:23;;;;;;;11.07;4.75;;;1.70;99.90;;;;;;4988743;28;20029;-58
2021/01/04 07:13:58;;;;;;;9.32;4.53;;;1.70;99.90;;;;;;4988468;28;20038;-60
2021/01/04 07:17:01;;;;;;;6.97;4.95;;;1.70;99.90;;;;;;4987157;28;20018;-61
2021/01/04 07:19:29;;;;;;;8.65;4.95;;;1.70;99.90;;;;;;4986494;28;20035;-60
2021/01/04 07:22:05;;;;;;;38.30;8.23;;;1.70;99.90;;;;;;4982741;28;20049;-61
2021/01/04 07:24:33;;;;;;;9.00;4.80;;;1.70;99.90;;;;;;5002768;28;20056;-63
2021/01/04 07:27:18;;;;;;;6.38;4.88;;;1.70;99.90;;;;;;4988248;28;20018;-63
2021/01/04 07:30:04;;;;;;;6.68;5.05;;;1.70;99.90;;;;;;4985668;28;20026;-62
2021/01/04 07:32:50;;;;;;;5.97;4.35;;;1.70;99.90;;;;;;4988723;28;20035;-60
2021/01/04 07:35:37;;;;;;;6.55;4.93;;;1.70;99.90;;;;;;4987853;28;20030;-63
2021/01/04 07:38:37;;;;;;;8.05;4.40;;;1.70;99.90;;;;;;4987626;28;20453;-61
2021/01/04 07:41:24;;;;;;;6.90;4.53;;;1.70;99.90;;;;;;4987223;28;20056;-60
2021/01/04 07:44:22;;;;;;;10.50;4.97;;;1.70;99.90;;;;;;4988056;28;20056;-62
2021/01/04 07:47:06;;;;;;;6.25;4.13;;;1.70;99.90;;;;;;4985323;28;20058;-62
2021/01/04 07:50:02;;;;;;;5.43;3.92;;;1.80;99.90;;;;;;4988399;28;20026;-59
2021/01/04 07:52:58;;;;;;;7.05;4.18;;;1.70;99.90;;;;;;4984736;28;20026;-61
2021/01/04 07:55:35;;;;;;;7.25;4.40;;;1.80;99.90;;;;;;4985684;28;20046;-59
2021/01/04 07:58:35;;;;;;;6.13;3.95;;;1.80;99.90;;;;;;4924026;28;20042;-59
2021/01/04 08:01:20;;;;;;;5.05;3.80;;;1.80;99.90;;;;;;4980169;28;20504;-61
2021/01/04 08:03:51;;;;;;;;;;;1.80;99.90;;;;;;4937516;28;20044;-58
2021/01/04 08:06:23;;;;;;;10.73;4.28;;;1.80;99.90;;;;;;4983014;28;19937;-60
2021/01/04 08:09:09;;;;;;;6.72;4.40;;;1.80;99.90;;;;;;4982421;28;20030;-59
2021/01/04 08:11:40;;;;;;;8.32;5.40;;;1.80;99.90;;;;;;4980993;28;20049;-59
2021/01/04 08:14:39;;;;;;;10.13;5.32;;;1.80;99.90;;;;;;4981879;28;20030;-62
2021/01/04 08:17:17;;;;;;;12.80;5.97;;;1.80;99.90;;;;;;4940304;28;20568;-56
2021/01/04 08:19:44;;;;;;;8.68;5.90;;;1.80;99.90;;;;;;4942001;28;20027;-58
2021/01/04 08:22:15;;;;;;;12.85;6.68;;;1.80;99.90;;;;;;4943630;29;20027;-61
2021/01/04 08:24:46;;;;;;;9.73;6.88;;;1.80;99.90;;;;;;4940678;29;20032;-62
2021/01/04 08:27:33;;;;;;;11.55;7.28;;;1.90;99.90;;;;;;4944166;29;20042;-60
2021/01/04 08:30:24;;;;;;;8.85;5.82;;;1.80;99.90;;;;;;4943049;28;20034;-63
2021/01/04 08:32:59;;;;;;;8.52;5.65;;;1.80;99.90;;;;;;4943095;29;20035;-60
2021/01/04 08:35:27;;;;;;;6.50;4.90;;;1.80;99.90;;;;;;4945348;28;20034;-59
2021/01/04 08:37:53;;;;;;;7.72;5.45;;;1.80;99.90;;;;;;4942279;28;20163;-61
2021/01/04 08:40:25;;;;;;;9.35;5.57;;;1.80;99.90;;;;;;4943628;28;20118;-62
2021/01/04 08:43:10;;;;;;;7.45;4.75;;;1.80;99.90;;;;;;4941938;29;20030;-57
2021/01/04 08:45:45;;;;;;;7.15;4.72;;;1.90;99.90;;;;;;4943707;28;20039;-61
2021/01/04 08:48:21;;;;;;;6.85;4.60;;;1.90;99.90;;;;;;4942617;29;20038;-59
2021/01/04 08:51:03;;;;;;;9.30;6.40;;;2.00;99.90;;;;;;4944416;29;20536;-60
2021/01/04 08:53:28;;;;;;;10.75;7.28;;;2.00;99.90;;;;;;4941770;29;20094;-60
2021/01/04 08:56:06;;;;;;;9.38;7.32;;;2.10;99.90;;;;;;4940881;28;20763;-62
2021/01/04 08:58:38;;;;;;;8.35;6.15;;;2.10;99.90;;;;;;4947395;28;20109;-62
2021/01/04 09:01:13;;;;;;;9.18;5.80;;;2.20;99.90;;;;;;4966235;28;20030;-62
2021/01/04 09:03:39;;;;;;;7.75;6.25;;;2.20;99.90;;;;;;4956440;28;20039;-61
2021/01/04 09:06:23;;;;;;;9.75;6.47;;;2.30;99.90;;;;;;4962495;28;20035;-59
2021/01/04 09:08:55;;;;;;;14.52;8.90;;;2.20;99.90;;;;;;4964640;28;20038;-62
2021/01/04 09:11:21;;;;;;;10.90;7.70;;;2.30;99.90;;;;;;4963016;28;20023;-62
2021/01/04 09:13:47;;;;;;;12.02;8.35;;;2.30;99.90;;;;;;4962253;28;20051;-61
2021/01/04 09:16:40;;;;;;;12.80;7.80;;;2.30;99.90;;;;;;4963242;28;20031;-62
2021/01/04 09:19:17;;;;;;;9.65;5.90;;;2.30;99.90;;;;;;4960756;28;20058;-61
2021/01/04 09:21:45;;;;;;;9.75;6.68;;;2.40;99.90;;;;;;4963743;28;20031;-58
2021/01/04 09:24:22;;;;;;;9.95;6.88;;;2.40;99.90;;;;;;4963914;28;20082;-59
2021/01/04 09:26:50;;;;;;;10.52;6.70;;;2.40;99.90;;;;;;4962798;28;20031;-59
2021/01/04 09:29:26;;;;;;;8.57;6.00;;;2.50;99.90;;;;;;4964097;28;20501;-61
2021/01/04 09:31:56;;;;;;;9.48;5.63;;;2.50;99.90;;;;;;4962096;28;20421;-61
2021/01/04 09:34:22;;;;;;;7.90;5.07;;;2.50;99.90;;;;;;4962269;28;20034;-59
2021/01/04 09:36:49;;;;;;;9.30;4.70;;;2.50;99.90;;;;;;4967655;28;20493;-57
2021/01/04 09:39:24;;;;;;;7.35;5.10;;;2.50;99.90;;;;;;4963425;28;20035;-61
2021/01/04 09:41:57;;;;;;;7.60;4.72;;;2.60;99.90;;;;;;4966907;28;20031;-58
2021/01/04 09:44:23;;;;;;;6.68;4.65;;;2.60;99.90;;;;;;4967747;28;20050;-62
2021/01/04 09:47:12;;;;;;;9.68;5.05;;;2.60;99.90;;;;;;4981664;28;20563;-62
2021/01/04 09:49:41;;;;;;;9.65;5.53;;;2.70;99.90;;;;;;4966610;28;20105;-61
2021/01/04 09:52:24;;;;;;;10.30;5.88;;;2.70;99.90;;;;;;4966337;28;20035;-58
2021/01/04 09:54:54;;;;;;;11.38;5.45;;;2.70;99.90;;;;;;4966523;28;20030;-60
2021/01/04 09:57:22;;;;;;;7.50;5.07;;;2.70;99.90;;;;;;4950179;28;20089;-58
2021/01/04 09:59:48;;;;;;;8.32;5.15;;;2.70;99.90;;;;;;4968363;28;20030;-60
2021/01/04 10:02:31;;;;;;;11.23;5.88;;;2.70;99.90;;;;;;4966678;28;20760;-60
2021/01/04 10:05:15;;;;;;;11.98;5.63;;;2.70;99.90;;;;;;4966739;28;20030;-60
2021/01/04 10:07:43;;;;;;;10.02;5.55;;;2.70;99.90;;;;;;4966232;28;20086;-61
2021/01/04 10:10:20;;;;;;;7.15;4.88;;;2.70;99.90;;;;;;4966528;28;20031;-60
2021/01/04 10:12:46;;;;;;;10.65;5.40;;;2.70;99.90;;;;;;4967167;28;20031;-60
2021/01/04 10:15:24;;;;;;;9.82;5.30;;;2.70;99.90;;;;;;4967139;28;20042;-59
2021/01/04 10:18:20;;;;;;;8.50;5.30;;;2.70;99.90;;;;;;4965988;28;20027;-64
2021/01/04 10:20:51;;;;;;;7.90;5.75;;;2.70;99.90;;;;;;4975708;28;20755;-61
2021/01/04 10:23:28;;;;;;;12.10;6.20;;;2.70;99.90;;;;;;4965726;28;20097;-61
2021/01/04 10:25:58;;;;;;;9.43;5.50;;;2.70;99.90;;;;;;4965314;28;20027;-63
2021/01/04 10:28:29;;;;;;;11.50;5.60;;;2.70;99.90;;;;;;4966281;28;20058;-60
2021/01/04 10:31:17;;;;;;;9.55;6.00;;;2.80;99.90;;;;;;4966145;28;20034;-60
2021/01/04 10:33:42;;;;;;;9.68;5.82;;;2.80;99.90;;;;;;4966281;28;20613;-63
2021/01/04 10:36:21;;;;;;;8.40;5.65;;;2.80;99.90;;;;;;4966632;28;20129;-62
2021/01/04 10:39:13;;;;;;;9.80;5.80;;;2.90;99.90;;;;;;4964023;28;20031;-61
2021/01/04 10:41:39;;;;;;;9.45;5.65;;;2.90;99.90;;;;;;4967469;28;20563;-62
2021/01/04 10:44:25;;;;;;;9.80;6.00;;;2.80;99.90;;;;;;4969197;28;20018;-57
2021/01/04 10:46:56;;;;;;;8.93;5.95;;;2.90;99.90;;;;;;4968752;28;20031;-62
2021/01/04 10:49:34;;;;;;;9.73;6.25;;;3.00;99.90;;;;;;4965280;28;20175;-60
2021/01/04 10:52:01;;;;;;;12.73;6.30;;;3.00;99.90;;;;;;4965952;28;20026;-60
2021/01/04 10:54:37;;;;;;;11.70;7.13;;;3.00;99.90;;;;;;4969184;28;20030;-61
2021/01/04 10:57:40;;;;;;;9.65;6.28;;;3.10;99.90;;;;;;4952058;28;20105;-60
2021/01/04 11:00:14;;;;;;;8.75;5.53;;;3.10;99.90;;;;;;4965606;28;20464;-62
2021/01/04 11:02:41;;;;;;;14.38;6.53;;;3.20;99.90;;;;;;4968505;28;20058;-60
2021/01/04 11:05:08;;;;;;;10.50;5.95;;;3.20;99.90;;;;;;4961769;28;20512;-62
2021/01/04 11:07:34;;;;;;;11.55;7.22;;;3.20;99.90;;;;;;4968926;28;20034;-60
2021/01/04 11:10:22;;;;;;;9.50;5.78;;;3.30;99.90;;;;;;4969423;28;20035;-62
2021/01/04 11:12:50;;;;;;;11.80;6.60;;;3.30;99.90;;;;;;4970821;28;20496;-57
2021/01/04 11:15:28;;;;;;;11.32;6.50;;;3.20;99.90;;;;;;4967530;28;20030;-61
2021/01/04 11:18:08;;;;;;;11.18;6.60;;;3.20;99.90;;;;;;4967551;28;20038;-63
2021/01/04 11:20:34;;;;;;;11.32;7.50;;;3.20;99.90;;;;;;4966537;28;20025;-62
2021/01/04 11:23:03;;;;;;;11.07;7.43;;;3.20;99.90;;;;;;4968198;28;20039;-59
2021/01/04 11:25:28;;;;;;;10.80;7.13;;;3.30;99.90;;;;;;4983121;28;20810;-59
2021/01/04 11:27:54;;;;;;;10.70;6.93;;;3.30;99.90;;;;;;4967516;28;20042;-59
2021/01/04 11:30:20;;;;;;;11.57;6.97;;;3.30;99.90;;;;;;4968630;28;20769;-61
2021/01/04 11:32:46;;;;;;;12.07;7.25;;;3.30;99.90;;;;;;4968340;28;20501;-60
2021/01/04 11:35:12;;;;;;;11.13;7.82;;;3.30;99.90;;;;;;4976259;28;20046;-61
2021/01/04 11:37:38;;;;;;;12.50;8.20;;;3.20;99.90;;;;;;4985935;28;20053;-61
2021/01/04 11:40:04;;;;;;;12.40;8.23;;;3.30;99.90;;;;;;4977188;28;20038;-58
2021/01/04 11:42:30;;;;;;;11.70;7.38;;;3.40;99.90;;;;;;4985334;28;20649;-58
2021/01/04 11:44:55;;;;;;;12.73;8.40;;;3.40;99.90;;;;;;4986838;28;20113;-60
2021/01/04 11:47:21;;;;;;;10.90;7.15;;;3.50;99.90;;;;;;4986502;28;20125;-58
2021/01/04 11:49:47;;;;;;;13.98;7.35;;;3.40;99.90;;;;;;4987262;28;20026;-59
2021/01/04 11:52:13;;;;;;;12.88;8.35;;;3.40;99.90;;;;;;4986918;28;20038;-58
2021/01/04 11:54:43;;;;;;;15.88;9.32;;;3.50;99.90;;;;;;4987189;28;20034;-60
2021/01/04 11:57:09;;;;;;;17.30;8.85;;;3.50;99.90;;;;;;4969604;28;20042;-58
2021/01/04 11:59:35;;;;;;;13.05;7.85;;;3.50;99.90;;;;;;4988140;28;20034;-60
2021/01/04 12:02:01;;;;;;;11.07;6.72;;;3.50;99.90;;;;;;4986944;28;20508;-61
2021/01/04 12:04:27;;;;;;;9.05;5.88;;;3.50;99.90;;;;;;4984260;28;20069;-56
2021/01/04 12:06:52;;;;;;;8.35;5.93;;;3.60;99.90;;;;;;4985115;28;20030;-60
2021/01/04 12:09:19;;;;;;;9.25;6.28;;;3.60;99.90;;;;;;4983138;28;20061;-60
2021/01/04 12:11:47;;;;;;;7.85;5.97;;;3.60;99.90;;;;;;4986722;28;20054;-60
2021/01/04 12:14:14;;;;;;;8.80;6.07;;;3.60;99.90;;;;;;4987890;28;20109;-60
2021/01/04 12:16:40;;;;;;;8.77;5.57;;;3.60;99.90;;;;;;4979952;28;20041;-60
2021/01/04 12:19:06;;;;;;;8.48;5.82;;;3.60;99.90;;;;;;4986177;28;20035;-61
2021/01/04 12:21:33;;;;;;;8.35;6.13;;;3.50;99.90;;;;;;4976249;28;20124;-61
2021/01/04 12:23:59;;;;;;;8.55;5.22;;;3.50;99.90;;;;;;4986720;28;20034;-61
2021/01/04 12:26:25;;;;;;;8.77;5.90;;;3.60;99.90;;;;;;4987357;28;20031;-60
2021/01/04 12:28:50;;;;;;;7.03;5.32;;;3.60;99.90;;;;;;4986222;28;20057;-63
2021/01/04 12:31:18;;;;;;;9.38;6.18;;;3.60;99.90;;;;;;4986390;28;20703;-61
2021/01/04 12:33:44;;;;;;;9.45;6.57;;;3.60;99.90;;;;;;4986442;28;20053;-57
2021/01/04 12:36:21;;;;;;;7.20;5.47;;;3.70;99.90;;;;;;4987206;28;20027;-61
2021/01/04 12:38:47;;;;;;;9.60;5.93;;;3.70;99.90;;;;;;4998950;28;20527;-60
2021/01/04 12:41:13;;;;;;;8.90;5.47;;;3.80;99.90;;;;;;4986537;28;20490;-59
2021/01/04 12:43:42;;;;;;;7.45;5.00;;;3.70;99.90;;;;;;4999456;28;20022;-58
2021/01/04 12:46:07;;;;;;;8.88;5.68;;;3.70;99.90;;;;;;4982351;28;20601;-60
2021/01/04 12:48:33;;;;;;;7.43;5.53;;;3.70;99.90;;;;;;4985868;28;20543;-60
2021/01/04 12:50:59;;;;;;;8.55;5.65;;;3.70;99.90;;;;;;4985857;28;20495;-61
2021/01/04 12:53:24;;;;;;;6.78;4.80;;;3.70;99.90;;;;;;4986995;28;20037;-60
2021/01/04 12:55:50;;;;;;;8.15;4.95;;;3.60;99.90;;;;;;5000915;28;20034;-60
2021/01/04 12:58:15;;;;;;;7.85;5.15;;;3.60;99.90;;;;;;4964693;28;20046;-58
2021/01/04 13:00:42;;;;;;;14.45;7.07;;;3.60;99.90;;;;;;4979942;28;20030;-58
2021/01/04 13:03:11;;;;;;;21.45;9.40;;;3.50;99.90;;;;;;4985438;28;20030;-58
2021/01/04 13:05:36;;;;;;;11.38;6.65;;;3.50;99.90;;;;;;4986597;28;20030;-58
2021/01/04 13:08:02;;;;;;;8.80;4.95;;;3.40;99.90;;;;;;4985028;28;20038;-61
2021/01/04 13:10:28;;;;;;;9.13;5.80;;;3.40;99.90;;;;;;4987055;28;20545;-61
2021/01/04 13:12:53;;;;;;;14.30;7.80;;;3.40;99.90;;;;;;4985921;28;20415;-58
2021/01/04 13:15:19;;;;;;;14.93;8.60;;;3.40;99.90;;;;;;4983856;28;20444;-59
2021/01/04 13:17:44;;;;;;;10.93;6.40;;;3.40;99.90;;;;;;4985746;28;20749;-60
2021/01/04 13:20:11;;;;;;;9.68;5.78;;;3.30;99.90;;;;;;4986217;28;20032;-59
2021/01/04 13:22:36;;;;;;;23.13;10.63;;;3.30;99.90;;;;;;4986318;28;20062;-60
2021/01/04 13:25:03;;;;;;;30.50;13.48;;;3.30;99.90;;;;;;4985933;28;20058;-61
2021/01/04 13:27:29;;;;;;;20.15;8.90;;;3.40;99.90;;;;;;4983565;28;20034;-58
2021/01/04 13:29:54;;;;;;;24.10;12.35;;;3.40;99.90;;;;;;4979155;28;20038;-58
2021/01/04 13:32:20;;;;;;;15.90;8.02;;;3.30;99.90;;;;;;4982412;28;20120;-59
2021/01/04 13:34:47;;;;;;;10.45;6.50;;;3.30;99.90;;;;;;4986483;28;20042;-57
2021/01/04 13:37:14;;;;;;;8.90;5.90;;;3.30;99.90;;;;;;4984372;28;20470;-60
2021/01/04 13:39:40;;;;;;;12.25;6.43;;;3.20;99.90;;;;;;4997368;28;20114;-56